Weather observations for the past three days for
Burbank - Bob Hope Airport
Metric (Imperial)
Date Time (pdt) Wind (kph) Vis. (km) Weather Sky Cond. Temperature (ºC) Relative Humidity Wind Chill (°C) Heat Index (°C) Pressure Precipitation (cm)
Air Dwpt 6 hour altimeter (cm) sea level (mb) 1 hr 3 hr 6 hr
Max. Min.
01 23:53 E 7 16.09 Fair CLR 18.9 13.9 73% 76.17 1014.5
01 22:53 SE 7 16.09 Fair CLR 20 13.9 28.3 20 68% 76.15 1014.1
01 21:53 S 9 16.09 Fair CLR 20 13.3 65% 76.15 1014.1
01 20:53 S 7 16.09 Fair CLR 20.6 12.2 59% 76.1 1013.3
01 19:53 S 9 16.09 Fair CLR 22.2 11.7 52% 76.05 1012.8
01 18:53 S 13 16.09 Fair CLR 24.4 8.9 37% 25 76.02 1012.4
01 17:53 S 17 16.09 Fair CLR 26.7 5.6 26% 26 76.05 1012.6
01 16:53 S 17 16.09 Fair CLR 27.8 2.2 30 23.9 19% 27 76.05 1012.7
01 15:53 S 15 16.09 Fair CLR 28.3 8.3 28% 27 76.07 1013.0
01 14:53 S 19 16.09 Fair CLR 29.4 7.8 26% 28 76.1 1013.0
01 13:53 S 19 16.09 Fair CLR 28.3 10 32% 27 76.12 1013.5
01 12:53 S 17 16.09 Fair CLR 27.8 12.8 40% 27 76.15 1014.0
01 11:53 SE 17 16.09 Fair CLR 26.1 14.4 49% 27 76.17 1014.4
01 10:53 SE 9 16.09 Fair CLR 24.4 15 24.4 16.7 56% 26 76.2 1014.7
01 09:53 SE 9 16.09 Fair CLR 21.7 15.6 68% 76.2 1014.7
01 08:53 SW 6 16.09 A Few Clouds FEW013 20 15.6 76% 76.2 1014.9
01 07:53 Calm 16.09 A Few Clouds FEW010 18.3 15 81% 76.17 1014.3
01 06:53 Calm 16.09 Fair CLR 17.2 12.2 73% 76.12 1013.8
01 05:53 NW 6 16.09 Fair CLR 16.7 11.7 73% 76.1 1013.5
01 04:53 Calm 16.09 Fair CLR 17.2 12.8 20.6 17.2 76% 76.1 1013.4
01 03:53 Calm 16.09 Fair CLR 17.8 12.8 73% 76.1 1013.4
01 02:53 SW 7 16.09 Fair CLR 17.8 15.6 87% 76.12 1013.6
01 01:53 Calm 16.09 NULL NULL 18.3 15.6 84% 76.12 1013.4
01 00:53 S 7 16.09 Fair CLR 18.3 15.6 84% 76.12 1013.6
31 23:53 SE 13 16.09 Fair CLR 18.9 15.6 81% 76.1 1013.4
31 22:53 SE 11 16.09 Fair CLR 20 15.6 28.3 20 76% 76.07 1012.9
31 21:53 SE 11 16.09 Fair CLR 21.7 15 66% 76.05 1012.7
31 20:53 S 6 16.09 Fair CLR 22.2 13.3 57% 76 1011.9
31 18:53 S 17 16.09 Fair CLR 24.4 10.6 42% 25 75.97 1011.4
31 17:53 S 15 16.09 Fair CLR 27.2 8.3 30% 27 75.95 1011.1
31 16:53 S 17 16.09 Fair CLR 28.3 10 30 25.6 32% 27 75.95 1011.1
31 15:53 S 17 16.09 Fair CLR 28.9 13.9 40% 28 75.95 1011.2
31 13:53 S 19 G 26 16.09 Fair CLR 29.4 15 42% 29 76.02 1012.0
31 12:53 S 15 16.09 Fair CLR 28.3 16.7 49% 29 76.05 1012.3
31 11:53 S 11 16.09 Fair CLR 27.2 17.2 54% 28 76.05 1012.6
31 10:53 S 11 16.09 Fair CLR 26.1 17.2 26.1 19.4 58% 27 76.07 1012.9
31 09:53 SE 13 16.09 Fair CLR 23.9 17.2 66% 25 76.07 1012.9
31 08:53 SE 7 16.09 Partly Cloudy SCT014 22.2 16.7 71% 76.07 1012.7
31 07:53 Calm 16.09 Mostly Cloudy BKN014 21.1 15.6 71% 76.05 1012.6
31 06:53 NW 6 16.09 Fair CLR 20 15 73% 76 1011.9
31 05:53 Calm 16.09 Fair CLR 20.6 15 70% 75.97 1011.4
31 04:53 Calm 16.09 Fair CLR 20.6 15 22.8 20.6 70% 75.97 1011.3
31 03:53 Calm 16.09 Fair CLR 20.6 16.1 76% 75.97 1011.4
31 02:53 SW 6 16.09 Fair CLR 20.6 16.1 76% 75.97 1011.4
31 01:53 S 7 16.09 Fair CLR 21.1 15.6 71% 75.97 1011.3
31 00:53 SE 11 16.09 Fair CLR 21.7 16.1 71% 75.95 1011.1
30 23:53 SE 9 16.09 Fair CLR 22.2 16.1 68% 75.95 1010.9
30 22:53 SE 11 16.09 Fair CLR 22.8 16.1 30.6 22.8 66% 75.92 1010.9
30 21:53 SE 11 16.09 Fair CLR 24.4 15 56% 26 75.92 1010.8
30 20:53 SE 11 16.09 Fair CLR 25 15.6 56% 26 75.9 1010.4
30 19:53 S 11 16.09 Fair CLR 24.4 15 56% 26 75.84 1009.6
30 18:53 S 15 16.09 Fair CLR 26.1 15.6 52% 27 75.79 1009.2
30 17:53 S 19 16.09 Fair CLR 28.3 15 44% 28 75.79 1009.1
30 16:53 S 20 16.09 Fair CLR 30.6 15.6 32.8 28.3 40% 30 75.79 1008.9
30 15:53 SW 13 16.09 Fair CLR 31.7 16.1 39% 32 75.82 1009.2
30 14:53 S 17 16.09 Fair CLR 31.7 16.7 41% 32 75.87 1010.1
30 13:53 S 20 16.09 Fair CLR 32.2 16.7 39% 32 75.9 1010.5
30 12:53 S 20 G 28 16.09 Fair CLR 31.7 16.1 39% 32 75.92 1010.6
30 11:53 S 11 16.09 Fair CLR 30.6 17.2 45% 31 75.95 1011.1
30 10:53 SE 9 16.09 Fair CLR 28.3 17.8 28.3 22.2 53% 29 75.97 1011.3
30 09:53 SE 7 16.09 Fair CLR 26.7 17.2 56% 27 75.97 1011.3
30 08:53 SE 7 16.09 Fair CLR 24.4 18.3 69% 25 75.97 1011.4
30 07:53 SE 9 16.09 Fair CLR 22.8 17.8 74% 76 1011.7
30 06:53 SE 6 16.09 Fair CLR 22.8 17.2 71% 75.95 1011.2
30 05:53 Calm 16.09 Fair CLR 22.8 17.2 71% 75.9 1010.5
30 04:53 E 6 16.09 Fair CLR 22.8 17.2 25 22.8 71% 75.9 1010.2
30 03:53 E 6 16.09 Fair CLR 22.8 17.2 71% 75.87 1010.0
30 02:53 SE 6 16.09 Fair CLR 23.3 16.7 67% 75.87 1010.0
30 01:53 SE 13 16.09 Fair CLR 23.3 17.2 69% 75.87 1009.8
30 00:53 SE 13 16.09 Fair CLR 23.9 17.8 69% 25 75.87 1009.9
Date Time (pdt) Wind (kph) Vis. (km) Weather Sky Cond. Air Dwpt Max. Min. Relative Humidity Wind Chill (°C) Heat Index (°C) altimeter (cm) sea level (mb) 1 hr 3 hr 6 hr
6 hour
Temperature (ºC) Pressure Precipitation (cm)